createdAt,value
2017-11-18T00:00:20.743Z,40.92
2017-11-18T00:00:52.739Z,40.63
2017-11-18T00:01:24.755Z,40.63
2017-11-18T00:01:56.781Z,40.72
2017-11-18T00:02:29.500Z,40.72
2017-11-18T00:03:01.530Z,40.82
2017-11-18T00:03:33.558Z,40.72
2017-11-18T00:04:05.583Z,40.92
2017-11-18T00:04:37.638Z,41.11
2017-11-18T00:05:10.232Z,40.92
2017-11-18T00:05:42.262Z,40.92
2017-11-18T00:06:14.311Z,40.72
2017-11-18T00:06:46.349Z,40.72
2017-11-18T00:07:18.325Z,40.72
2017-11-18T00:07:50.357Z,40.63
2017-11-18T00:08:22.524Z,41.11
2017-11-18T00:08:54.534Z,40.92
2017-11-18T00:09:26.561Z,40.82
2017-11-18T00:09:58.585Z,40.92
2017-11-18T00:10:30.619Z,40.92
2017-11-18T00:11:02.670Z,40.82
2017-11-18T00:11:34.675Z,40.92
2017-11-18T00:12:06.741Z,40.82
2017-11-18T00:12:38.770Z,40.72
2017-11-18T00:13:10.784Z,40.72
2017-11-18T00:13:42.808Z,40.82
2017-11-18T00:14:14.836Z,40.72
2017-11-18T00:14:46.858Z,40.72
2017-11-18T00:15:19.560Z,40.63
2017-11-18T00:15:51.559Z,40.92
2017-11-18T00:16:23.733Z,41.02
2017-11-18T00:16:55.758Z,40.92
2017-11-18T00:17:27.803Z,40.53
2017-11-18T00:17:59.794Z,40.63
2017-11-18T00:18:31.796Z,40.63
2017-11-18T00:19:03.831Z,40.82
2017-11-18T00:19:35.868Z,40.92
2017-11-18T00:20:07.879Z,40.92
2017-11-18T00:20:39.899Z,40.53
2017-11-18T00:21:11.934Z,40.53
2017-11-18T00:21:43.958Z,40.82
2017-11-18T00:22:16.635Z,41.02
2017-11-18T00:22:48.669Z,40.63
2017-11-18T00:23:20.759Z,40.92
2017-11-18T00:23:52.758Z,40.63
2017-11-18T00:24:24.769Z,40.82
2017-11-18T00:24:56.799Z,40.82
2017-11-18T00:25:28.846Z,40.53
2017-11-18T00:26:00.862Z,40.72
2017-11-18T00:26:32.882Z,40.63
2017-11-18T00:27:04.930Z,40.63
2017-11-18T00:27:36.946Z,40.82
2017-11-18T00:28:08.980Z,40.82
2017-11-18T00:28:40.993Z,40.82
2017-11-18T00:29:13.025Z,40.63
2017-11-18T00:29:45.041Z,40.72
2017-11-18T00:30:17.861Z,40.44
2017-11-18T00:30:49.908Z,40.44
2017-11-18T00:31:21.920Z,40.63
2017-11-18T00:31:53.957Z,40.53
2017-11-18T00:32:25.985Z,40.63
2017-11-18T00:32:58.003Z,40.44
2017-11-18T00:33:30.018Z,40.63
2017-11-18T00:34:02.035Z,40.63
2017-11-18T00:34:34.074Z,40.44
2017-11-18T00:35:06.134Z,40.53
2017-11-18T00:35:38.143Z,40.44
2017-11-18T00:36:10.148Z,40.63
2017-11-18T00:36:42.155Z,40.53
2017-11-18T00:37:14.671Z,40.44
2017-11-18T00:37:46.817Z,40.53
2017-11-18T00:38:18.836Z,40.44
2017-11-18T00:38:50.846Z,40.63
2017-11-18T00:39:22.852Z,40.72
2017-11-18T00:39:54.882Z,40.53
2017-11-18T00:40:26.925Z,40.34
2017-11-18T00:40:58.972Z,40.63
2017-11-18T00:41:30.940Z,40.63
2017-11-18T00:42:03.005Z,40.63
2017-11-18T00:42:35.001Z,40.44
2017-11-18T00:43:07.079Z,40.53
2017-11-18T00:43:39.082Z,40.44
2017-11-18T00:44:11.103Z,40.44
2017-11-18T00:44:43.377Z,40.53
2017-11-18T00:45:15.383Z,40.44
2017-11-18T00:45:47.379Z,40.44
2017-11-18T00:46:19.405Z,40.44
2017-11-18T00:46:51.429Z,40.44
2017-11-18T00:47:23.440Z,40.24
2017-11-18T00:47:55.453Z,40.53
2017-11-18T00:48:27.514Z,40.34
2017-11-18T00:48:59.533Z,40.34
2017-11-18T00:49:31.537Z,40.34
2017-11-18T00:50:03.585Z,40.34
2017-11-18T00:50:35.605Z,40.44
2017-11-18T00:51:07.607Z,40.34
2017-11-18T00:51:39.677Z,40.34
2017-11-18T00:52:11.701Z,40.24
2017-11-18T00:52:43.736Z,40.44
2017-11-18T00:53:15.762Z,40.34
2017-11-18T00:53:47.774Z,40.34
2017-11-18T00:54:19.793Z,40.34
2017-11-18T00:54:51.812Z,40.34
2017-11-18T00:55:23.820Z,40.34
2017-11-18T00:55:55.898Z,40.34
2017-11-18T00:56:28.013Z,40.44
2017-11-18T00:57:00.018Z,40.24
2017-11-18T00:57:32.767Z,40.24
2017-11-18T00:58:04.777Z,40.44
2017-11-18T00:58:36.832Z,40.24
2017-11-18T00:59:08.845Z,40.34
2017-11-18T00:59:40.860Z,40.24
2017-11-18T01:00:12.874Z,40.24
2017-11-18T01:00:45.571Z,40.24
2017-11-18T01:01:17.561Z,40.24
2017-11-18T01:01:49.653Z,40.24
2017-11-18T01:02:21.675Z,40.24
2017-11-18T01:02:53.708Z,40.24
2017-11-18T01:03:25.735Z,40.24
2017-11-18T01:03:57.736Z,40.24
2017-11-18T01:04:29.746Z,40.24
2017-11-18T01:05:01.838Z,40.24
2017-11-18T01:05:33.892Z,40.15
2017-11-18T01:06:07.607Z,40.15
2017-11-18T01:06:39.629Z,40.53
2017-11-18T01:07:11.658Z,40.15
2017-11-18T01:07:43.755Z,40.44
2017-11-18T01:08:15.766Z,40.24
2017-11-18T01:08:47.792Z,40.15
2017-11-18T01:09:19.791Z,40.44
2017-11-18T01:09:51.821Z,40.24
2017-11-18T01:10:23.879Z,40.24
2017-11-18T01:10:55.878Z,40.24
2017-11-18T01:11:27.902Z,40.53
2017-11-18T01:11:59.937Z,40.44
2017-11-18T01:12:31.952Z,40.24
2017-11-18T01:13:03.984Z,40.34
2017-11-18T01:13:36.000Z,40.24
2017-11-18T01:14:08.012Z,40.44
2017-11-18T01:14:40.042Z,40.24
2017-11-18T01:15:12.045Z,40.53
2017-11-18T01:15:44.080Z,40.24
2017-11-18T01:16:16.105Z,40.53
2017-11-18T01:16:48.115Z,40.24
2017-11-18T01:17:20.152Z,40.63
2017-11-18T01:17:52.210Z,40.53
2017-11-18T01:18:24.255Z,40.34
2017-11-18T01:18:56.271Z,40.53
2017-11-18T01:19:28.252Z,40.53
2017-11-18T01:20:00.280Z,40.63
2017-11-18T01:20:32.365Z,40.44
2017-11-18T01:21:04.394Z,40.63
2017-11-18T01:21:36.400Z,40.24
2017-11-18T01:22:08.432Z,40.44
2017-11-18T01:22:40.444Z,40.53
2017-11-18T01:23:12.459Z,40.53
2017-11-18T01:23:44.515Z,40.72
2017-11-18T01:24:16.548Z,40.53
2017-11-18T01:24:48.567Z,40.44
2017-11-18T01:25:20.605Z,40.72
2017-11-18T01:25:52.676Z,39.76
2017-11-18T01:26:24.685Z,40.44
2017-11-18T01:26:56.696Z,40.34
2017-11-18T01:27:28.694Z,39.95
2017-11-18T01:28:00.727Z,40.44
2017-11-18T01:28:32.748Z,39.95
2017-11-18T01:29:04.810Z,39.86
2017-11-18T01:29:36.840Z,40.34
2017-11-18T01:30:08.834Z,39.95
2017-11-18T01:30:40.890Z,40.34
2017-11-18T01:31:12.933Z,39.95
2017-11-18T01:31:44.953Z,39.86
2017-11-18T01:32:17.013Z,40.34
2017-11-18T01:32:49.014Z,39.86
2017-11-18T01:33:21.018Z,40.34
2017-11-18T01:33:56.837Z,40.44
2017-11-18T01:34:32.779Z,39.95
2017-11-18T01:35:04.830Z,40.92
2017-11-18T01:35:36.865Z,39.86
2017-11-18T01:36:08.884Z,40.05
2017-11-18T01:36:40.912Z,39.86
2017-11-18T01:37:12.925Z,39.86
2017-11-18T01:37:44.960Z,39.86
2017-11-18T01:38:16.991Z,39.95
2017-11-18T01:38:49.034Z,40.34
2017-11-18T01:39:21.071Z,40.07
2017-11-18T01:39:53.081Z,40.44
2017-11-18T01:40:25.106Z,39.86
2017-11-18T01:40:57.123Z,40.44
2017-11-18T01:41:29.158Z,40.05
2017-11-18T01:42:01.263Z,40.34
2017-11-18T01:42:33.308Z,40.05
2017-11-18T01:43:05.304Z,40.15
2017-11-18T01:43:37.349Z,40.34
2017-11-18T01:44:09.372Z,40.34
2017-11-18T01:44:41.416Z,40.24
2017-11-18T01:45:13.435Z,40.26
2017-11-18T01:45:45.537Z,40.34
2017-11-18T01:46:17.633Z,40.05
2017-11-18T01:46:49.638Z,39.95
2017-11-18T01:47:21.652Z,40.34
2017-11-18T01:47:53.703Z,40.05
2017-11-18T01:48:25.849Z,40.24
2017-11-18T01:48:57.856Z,40.24
2017-11-18T01:49:29.878Z,40.34
2017-11-18T01:50:01.919Z,40.24
2017-11-18T01:50:33.918Z,40.24
2017-11-18T01:51:06.713Z,40.24
2017-11-18T01:51:38.738Z,40.24
2017-11-18T01:52:10.780Z,40.15
2017-11-18T01:52:42.920Z,40.15
2017-11-18T01:53:14.915Z,40.24
2017-11-18T01:53:46.944Z,40.15
2017-11-18T01:54:18.944Z,40.05
2017-11-18T01:54:50.969Z,40.05
2017-11-18T01:55:22.966Z,40.15
2017-11-18T01:55:55.060Z,40.15
2017-11-18T01:56:27.109Z,40.05
2017-11-18T01:56:59.155Z,40.05
2017-11-18T01:57:31.166Z,40.05
2017-11-18T01:58:03.215Z,40.05
2017-11-18T01:58:35.200Z,40.34
2017-11-18T01:59:07.225Z,40.07
2017-11-18T01:59:39.233Z,40.24
2017-11-18T02:00:11.291Z,39.97
2017-11-18T02:00:43.316Z,39.95
2017-11-18T02:01:15.407Z,40.07
2017-11-18T02:01:47.422Z,40.15
2017-11-18T02:02:19.442Z,40.05
2017-11-18T02:02:51.521Z,40.17
2017-11-18T02:03:23.543Z,40.15
2017-11-18T02:03:55.572Z,40.15
2017-11-18T02:04:27.607Z,40.15
2017-11-18T02:04:59.755Z,40.17
2017-11-18T02:05:31.767Z,40.15
2017-11-18T02:06:03.789Z,40.15
2017-11-18T02:06:35.794Z,40.05
2017-11-18T02:07:07.828Z,40.34
2017-11-18T02:07:39.850Z,40.34
2017-11-18T02:08:11.879Z,40.34
2017-11-18T02:08:43.886Z,40.24
2017-11-18T02:09:15.884Z,40.15
2017-11-18T02:09:47.924Z,40.05
2017-11-18T02:10:19.925Z,40.15
2017-11-18T02:10:51.976Z,40.24
2017-11-18T02:11:24.027Z,40.24
2017-11-18T02:11:56.807Z,40.24
2017-11-18T02:12:28.901Z,40.15
2017-11-18T02:13:00.904Z,40.24
2017-11-18T02:13:32.916Z,40.24
2017-11-18T02:14:04.938Z,40.05
2017-11-18T02:14:37.109Z,40.17
2017-11-18T02:15:09.163Z,40.05
2017-11-18T02:15:41.232Z,40.05
2017-11-18T02:16:13.235Z,40.24
2017-11-18T02:16:45.270Z,40.24
2017-11-18T02:17:17.286Z,40.24
2017-11-18T02:17:49.289Z,40.15
2017-11-18T02:18:21.380Z,40.24
2017-11-18T02:18:53.380Z,39.76
2017-11-18T02:19:25.417Z,40.15
2017-11-18T02:19:57.514Z,40.26
2017-11-18T02:20:29.538Z,40.26
2017-11-18T02:21:01.569Z,40.26
2017-11-18T02:21:33.607Z,40.24
2017-11-18T02:22:05.621Z,40.24
2017-11-18T02:22:37.646Z,40.15
2017-11-18T02:23:09.751Z,40.24
2017-11-18T02:23:41.765Z,40.17
2017-11-18T02:24:13.790Z,40.17
2017-11-18T02:24:45.786Z,40.24
2017-11-18T02:25:17.833Z,40.15
2017-11-18T02:25:49.872Z,40.17
2017-11-18T02:26:21.875Z,40.34
2017-11-18T02:26:53.940Z,40.15
2017-11-18T02:27:25.979Z,40.15
2017-11-18T02:27:57.972Z,40.34
2017-11-18T02:28:30.013Z,39.97
2017-11-18T02:29:02.043Z,40.34
2017-11-18T02:29:34.081Z,40.36
2017-11-18T02:30:06.103Z,40.24
2017-11-18T02:30:38.139Z,40.36
2017-11-18T02:31:10.196Z,40.15
2017-11-18T02:31:42.238Z,40.26
2017-11-18T02:32:14.259Z,40.34
2017-11-18T02:32:46.301Z,40.26
2017-11-18T02:33:18.292Z,40.05
2017-11-18T02:33:50.341Z,40.17
2017-11-18T02:34:22.380Z,40.34
2017-11-18T02:34:54.422Z,40.15
2017-11-18T02:35:26.431Z,40.34
2017-11-18T02:35:58.457Z,40.15
2017-11-18T02:36:30.492Z,39.87
2017-11-18T02:37:02.604Z,40.24
2017-11-18T02:37:34.632Z,39.97
2017-11-18T02:38:06.652Z,40.36
2017-11-18T02:38:38.680Z,40.34
2017-11-18T02:39:10.728Z,40.36
2017-11-18T02:39:42.742Z,40.17
2017-11-18T02:40:14.791Z,40.26
2017-11-18T02:40:46.851Z,40.36
2017-11-18T02:41:18.872Z,40.26
2017-11-18T02:41:50.874Z,40.07
2017-11-18T02:42:23.577Z,39.86
2017-11-18T02:42:55.683Z,40.07
2017-11-18T02:43:28.320Z,40.36
2017-11-18T02:44:00.356Z,39.78
2017-11-18T02:44:32.386Z,40.36
2017-11-18T02:45:04.410Z,40.17
2017-11-18T02:45:36.447Z,39.87
2017-11-18T02:46:08.478Z,39.87
2017-11-18T02:46:40.492Z,39.87
2017-11-18T02:47:12.546Z,40.17
2017-11-18T02:47:44.562Z,39.87
2017-11-18T02:48:16.610Z,39.97
2017-11-18T02:48:48.747Z,40.17
2017-11-18T02:49:20.777Z,40.24
2017-11-18T02:49:52.761Z,39.87
2017-11-18T02:50:24.800Z,40.36
2017-11-18T02:50:56.840Z,40.45
2017-11-18T02:51:28.859Z,40.07
2017-11-18T02:52:00.910Z,39.87
2017-11-18T02:52:33.025Z,40.36
2017-11-18T02:53:05.061Z,40.45
2017-11-18T02:53:37.058Z,39.87
2017-11-18T02:54:09.120Z,40.17
2017-11-18T02:54:42.016Z,39.87
2017-11-18T02:55:14.044Z,39.87
2017-11-18T02:55:46.657Z,40.36
2017-11-18T02:56:18.686Z,39.97
2017-11-18T02:56:50.692Z,39.97
2017-11-18T02:57:22.711Z,40.26
2017-11-18T02:57:54.759Z,39.87
2017-11-18T02:58:26.743Z,39.97
2017-11-18T02:58:58.768Z,39.97
2017-11-18T02:59:30.843Z,40.26
2017-11-18T03:00:02.846Z,39.97
2017-11-18T03:00:34.912Z,40.26
2017-11-18T03:01:07.037Z,39.87
2017-11-18T03:01:39.044Z,40.26
2017-11-18T03:02:11.067Z,39.87
2017-11-18T03:02:43.087Z,39.97
2017-11-18T03:03:15.121Z,39.87
2017-11-18T03:03:47.142Z,39.87
2017-11-18T03:04:19.163Z,39.87
2017-11-18T03:04:51.174Z,40.26
2017-11-18T03:05:23.233Z,40.17
2017-11-18T03:05:55.254Z,39.97
2017-11-18T03:06:27.386Z,39.97
2017-11-18T03:06:59.468Z,39.87
2017-11-18T03:07:31.484Z,39.97
2017-11-18T03:08:03.558Z,39.97
2017-11-18T03:08:35.561Z,39.97
2017-11-18T03:09:07.561Z,39.87
2017-11-18T03:09:39.605Z,39.97
2017-11-18T03:10:11.611Z,39.87
2017-11-18T03:10:43.652Z,39.97
2017-11-18T03:11:15.682Z,39.97
2017-11-18T03:11:47.801Z,39.87
2017-11-18T03:12:19.814Z,39.97
2017-11-18T03:12:51.861Z,40.26
2017-11-18T03:13:23.876Z,39.97
2017-11-18T03:13:55.989Z,39.87
2017-11-18T03:14:28.009Z,39.78
2017-11-18T03:15:00.046Z,39.87
2017-11-18T03:15:32.106Z,40.17
2017-11-18T03:16:04.095Z,39.97
2017-11-18T03:16:36.113Z,39.95
2017-11-18T03:17:08.109Z,40.53
2017-11-18T03:17:40.130Z,40.26
2017-11-18T03:18:12.141Z,39.86
2017-11-18T03:18:44.171Z,39.87
2017-11-18T03:19:16.183Z,39.87
2017-11-18T03:19:48.228Z,39.97
2017-11-18T03:20:20.236Z,40.45
2017-11-18T03:20:52.252Z,39.78
2017-11-18T03:21:24.324Z,40.07
2017-11-18T03:21:57.151Z,39.87
2017-11-18T03:22:29.175Z,39.87
2017-11-18T03:23:01.224Z,40.36
2017-11-18T03:23:33.249Z,39.97
2017-11-18T03:24:05.236Z,39.97
2017-11-18T03:24:37.269Z,39.87
2017-11-18T03:25:09.309Z,39.87
2017-11-18T03:25:41.352Z,39.87
2017-11-18T03:26:13.366Z,39.95
2017-11-18T03:26:45.378Z,40.17
2017-11-18T03:27:17.412Z,40.07
2017-11-18T03:27:49.445Z,40.26
2017-11-18T03:28:21.474Z,40.26
2017-11-18T03:28:53.522Z,39.87
2017-11-18T03:29:25.543Z,39.97
2017-11-18T03:29:57.581Z,40.07
2017-11-18T03:30:29.578Z,39.97
2017-11-18T03:31:01.643Z,39.97
2017-11-18T03:31:33.682Z,40.07
2017-11-18T03:32:05.687Z,40.26
2017-11-18T03:32:37.689Z,40.17
2017-11-18T03:33:09.787Z,40.05
2017-11-18T03:33:41.798Z,39.95
2017-11-18T03:34:13.822Z,40.34
2017-11-18T03:34:45.839Z,39.87
2017-11-18T03:35:17.822Z,39.95
2017-11-18T03:35:49.837Z,39.95
2017-11-18T03:36:22.350Z,40.05
2017-11-18T03:36:54.398Z,39.78
2017-11-18T03:37:26.475Z,39.95
2017-11-18T03:37:58.494Z,40.17
2017-11-18T03:38:30.566Z,39.86
2017-11-18T03:39:02.579Z,40.05
2017-11-18T03:39:34.621Z,39.95
2017-11-18T03:40:06.638Z,40.15
2017-11-18T03:40:38.673Z,39.86
2017-11-18T03:41:10.661Z,39.97
2017-11-18T03:41:42.686Z,39.86
2017-11-18T03:42:14.725Z,39.86
2017-11-18T03:42:46.763Z,39.86
2017-11-18T03:43:18.772Z,40.24
2017-11-18T03:43:50.795Z,39.86
2017-11-18T03:44:22.838Z,39.95
2017-11-18T03:44:54.892Z,39.95
2017-11-18T03:45:26.917Z,40.24
2017-11-18T03:45:58.949Z,40.24
2017-11-18T03:46:31.053Z,39.86
2017-11-18T03:47:03.061Z,39.95
2017-11-18T03:47:35.084Z,39.95
2017-11-18T03:48:07.086Z,39.86
2017-11-18T03:48:39.164Z,39.95
2017-11-18T03:49:11.166Z,39.86
2017-11-18T03:49:43.220Z,40.24
2017-11-18T03:50:15.957Z,40.15
2017-11-18T03:50:47.996Z,39.97
2017-11-18T03:51:20.076Z,39.97
2017-11-18T03:51:52.124Z,39.86
2017-11-18T03:52:24.158Z,39.95
2017-11-18T03:52:56.170Z,39.86
2017-11-18T03:53:28.203Z,39.86
2017-11-18T03:54:00.297Z,39.95
2017-11-18T03:54:32.306Z,39.86
2017-11-18T03:55:04.313Z,39.95
2017-11-18T03:55:36.325Z,39.95
2017-11-18T03:56:08.413Z,39.95
2017-11-18T03:56:40.461Z,39.86
2017-11-18T03:57:12.451Z,39.95
2017-11-18T03:57:44.518Z,39.86
2017-11-18T03:58:16.541Z,40.24
2017-11-18T03:58:48.592Z,39.86
2017-11-18T03:59:20.622Z,40.15
2017-11-18T03:59:52.668Z,40.24
2017-11-18T04:00:24.674Z,39.86
2017-11-18T04:00:56.686Z,40.15
2017-11-18T04:01:28.758Z,40.05
2017-11-18T04:02:00.764Z,40.15
2017-11-18T04:02:32.790Z,40.15
2017-11-18T04:03:04.807Z,39.86
2017-11-18T04:03:36.840Z,40.15
2017-11-18T04:04:08.870Z,40.15
2017-11-18T04:04:40.936Z,40.24
2017-11-18T04:05:12.969Z,40.15
2017-11-18T04:05:44.990Z,40.24
2017-11-18T04:06:17.059Z,40.15
2017-11-18T04:06:49.144Z,40.05
2017-11-18T04:07:21.172Z,40.05
2017-11-18T04:07:53.178Z,40.15
2017-11-18T04:08:25.201Z,40.15
2017-11-18T04:08:57.208Z,40.05
2017-11-18T04:09:29.223Z,40.15
2017-11-18T04:10:01.254Z,40.05
2017-11-18T04:10:33.254Z,40.15
2017-11-18T04:11:05.277Z,40.15
2017-11-18T04:11:37.294Z,39.95
2017-11-18T04:12:09.317Z,40.15
2017-11-18T04:12:41.322Z,40.15
2017-11-18T04:13:13.367Z,40.12
2017-11-18T04:13:45.381Z,40.03
2017-11-18T04:14:17.385Z,40.12
2017-11-18T04:14:49.507Z,40.22
2017-11-18T04:15:21.628Z,40.32
2017-11-18T04:15:53.652Z,40.12
2017-11-18T04:16:25.684Z,40.22
2017-11-18T04:16:57.813Z,40.15
2017-11-18T04:17:29.827Z,40.03
2017-11-18T04:18:01.835Z,40.12
2017-11-18T04:18:33.868Z,40.22
2017-11-18T04:19:05.986Z,40.22
2017-11-18T04:19:38.022Z,40.22
2017-11-18T04:20:10.075Z,40.12
2017-11-18T04:20:42.088Z,40.22
2017-11-18T04:21:14.098Z,40.32
2017-11-18T04:21:46.112Z,39.84
2017-11-18T04:22:18.143Z,40.22
2017-11-18T04:22:50.252Z,40.32
2017-11-18T04:23:22.247Z,40.03
2017-11-18T04:23:54.294Z,39.94
2017-11-18T04:24:26.297Z,39.84
2017-11-18T04:24:58.310Z,40.42
2017-11-18T04:25:30.285Z,39.84
2017-11-18T04:26:02.304Z,40.42
2017-11-18T04:26:34.308Z,40.12
2017-11-18T04:27:06.343Z,39.84
2017-11-18T04:27:38.339Z,40.32
2017-11-18T04:28:10.347Z,40.22
2017-11-18T04:28:42.365Z,39.84
2017-11-18T04:29:14.400Z,39.84
2017-11-18T04:29:46.420Z,40.03
2017-11-18T04:30:18.428Z,40.42
2017-11-18T04:30:50.459Z,39.84
2017-11-18T04:31:22.509Z,40.32
2017-11-18T04:31:54.499Z,40.32
2017-11-18T04:32:26.545Z,39.84
2017-11-18T04:32:58.597Z,40.32
2017-11-18T04:33:31.199Z,39.94
2017-11-18T04:34:03.224Z,40.32
2017-11-18T04:34:35.248Z,40.42
2017-11-18T04:35:07.297Z,39.74
2017-11-18T04:35:39.393Z,40.32
2017-11-18T04:36:11.389Z,39.94
2017-11-18T04:36:43.411Z,40.51
2017-11-18T04:37:15.442Z,40.32
2017-11-18T04:37:47.541Z,40.42
2017-11-18T04:38:19.562Z,40.7
2017-11-18T04:38:51.591Z,40.51
2017-11-18T04:39:23.627Z,40.7
2017-11-18T04:39:55.649Z,40.32
2017-11-18T04:40:27.671Z,40.51
2017-11-18T04:40:59.716Z,40.22
2017-11-18T04:41:31.716Z,40.2
2017-11-18T04:42:03.756Z,40.22
2017-11-18T04:42:35.798Z,40.22
2017-11-18T04:43:07.805Z,40.22
2017-11-18T04:43:39.843Z,40.12
2017-11-18T04:44:11.895Z,40.32
2017-11-18T04:44:44.013Z,40.22
2017-11-18T04:45:16.039Z,40.39
2017-11-18T04:45:48.080Z,40.2
2017-11-18T04:46:20.084Z,40.12
2017-11-18T04:46:52.106Z,40.12
2017-11-18T04:47:24.126Z,40.32
2017-11-18T04:47:56.163Z,40.49
2017-11-18T04:48:28.174Z,40.49
2017-11-18T04:49:00.184Z,40.3
2017-11-18T04:49:32.202Z,40.3
2017-11-18T04:50:04.201Z,40.2
2017-11-18T04:50:36.226Z,40.2
2017-11-18T04:51:08.248Z,40.49
2017-11-18T04:51:40.278Z,40.2
2017-11-18T04:52:12.306Z,40.3
2017-11-18T04:52:44.493Z,40.2
2017-11-18T04:53:16.487Z,40.22
2017-11-18T04:53:48.501Z,40.2
2017-11-18T04:54:20.622Z,40.42
2017-11-18T04:54:52.657Z,40.11
2017-11-18T04:55:26.391Z,40.2
2017-11-18T04:55:58.423Z,40.11
2017-11-18T04:56:30.442Z,40.49
2017-11-18T04:57:02.431Z,40.2
2017-11-18T04:57:34.447Z,40.2
2017-11-18T04:58:06.494Z,40.2
2017-11-18T04:58:38.526Z,40.2
2017-11-18T04:59:11.213Z,40.2
2017-11-18T04:59:43.323Z,40.2
2017-11-18T05:00:15.366Z,40.2
2017-11-18T05:00:47.387Z,40.2
2017-11-18T05:01:19.410Z,40.2
2017-11-18T05:01:51.446Z,40.39
2017-11-18T05:02:23.500Z,40.3
2017-11-18T05:02:55.536Z,40.2
2017-11-18T05:03:27.618Z,40.2
2017-11-18T05:04:00.405Z,40.2
2017-11-18T05:04:32.477Z,40.3
2017-11-18T05:05:04.501Z,40.2
2017-11-18T05:05:36.549Z,40.3
2017-11-18T05:06:08.550Z,40.39
2017-11-18T05:06:40.630Z,40.3
2017-11-18T05:07:12.655Z,40.3
2017-11-18T05:07:44.667Z,40.3
2017-11-18T05:08:16.686Z,40.3
2017-11-18T05:08:48.721Z,40.49
2017-11-18T05:09:20.729Z,40.39
2017-11-18T05:09:52.780Z,40.3
2017-11-18T05:10:24.797Z,40.3
2017-11-18T05:10:56.816Z,40.39
2017-11-18T05:11:28.837Z,40.39
2017-11-18T05:12:00.839Z,40.49
2017-11-18T05:12:32.850Z,40.49
2017-11-18T05:13:04.934Z,40.49
2017-11-18T05:13:36.947Z,40.49
2017-11-18T05:14:08.957Z,40.49
2017-11-18T05:14:41.023Z,40.2
2017-11-18T05:15:13.059Z,40.59
2017-11-18T05:15:45.087Z,40.39
2017-11-18T05:16:17.116Z,40.49
2017-11-18T05:16:49.162Z,40.39
2017-11-18T05:17:21.213Z,40.49
2017-11-18T05:17:54.020Z,40.49
2017-11-18T05:18:26.043Z,40.3
2017-11-18T05:18:58.164Z,40.39
2017-11-18T05:19:30.177Z,40.59
2017-11-18T05:20:02.181Z,40.49
2017-11-18T05:20:34.210Z,40.49
2017-11-18T05:21:06.737Z,40.49
2017-11-18T05:21:38.764Z,40.59
2017-11-18T05:22:10.803Z,40.39
2017-11-18T05:22:42.893Z,40.39
2017-11-18T05:23:14.927Z,40.3
2017-11-18T05:23:46.934Z,40.39
2017-11-18T05:24:18.939Z,40.3
2017-11-18T05:24:51.002Z,40.3
2017-11-18T05:25:23.043Z,40.59
2017-11-18T05:25:55.052Z,40.49
2017-11-18T05:26:27.071Z,40.3
2017-11-18T05:26:59.092Z,40.78
2017-11-18T05:27:31.110Z,40.59
2017-11-18T05:28:03.271Z,40.49
2017-11-18T05:28:35.229Z,40.69
2017-11-18T05:29:07.252Z,40.78
2017-11-18T05:29:39.335Z,40.59
2017-11-18T05:30:11.355Z,40.49
2017-11-18T05:30:43.368Z,40.39
2017-11-18T05:31:15.377Z,40.59
2017-11-18T05:31:47.431Z,40.49
2017-11-18T05:32:19.452Z,40.78
2017-11-18T05:32:51.509Z,40.49
2017-11-18T05:33:23.640Z,40.59
2017-11-18T05:33:55.656Z,40.88
2017-11-18T05:34:27.667Z,40.69
2017-11-18T05:34:59.668Z,40.49
2017-11-18T05:35:31.674Z,40.59
2017-11-18T05:36:03.695Z,40.39
2017-11-18T05:36:35.718Z,40.57
2017-11-18T05:37:07.721Z,40.59
2017-11-18T05:37:39.727Z,40.49
2017-11-18T05:38:11.816Z,40.69
2017-11-18T05:38:43.828Z,40.57
2017-11-18T05:39:15.849Z,40.69
2017-11-18T05:39:47.868Z,40.66
2017-11-18T05:40:19.867Z,40.76
2017-11-18T05:40:51.879Z,40.78
2017-11-18T05:41:23.900Z,40.66
2017-11-18T05:41:55.925Z,40.69
2017-11-18T05:42:27.946Z,40.66
2017-11-18T05:42:59.963Z,40.59
2017-11-18T05:43:31.981Z,40.78
2017-11-18T05:44:03.999Z,40.59
2017-11-18T05:44:36.052Z,40.66
2017-11-18T05:45:09.050Z,40.59
2017-11-18T05:45:41.110Z,40.78
2017-11-18T05:46:13.122Z,40.69
2017-11-18T05:46:45.150Z,40.66
2017-11-18T05:47:17.164Z,40.57
2017-11-18T05:47:49.176Z,40.66
2017-11-18T05:48:21.191Z,40.66
2017-11-18T05:48:56.132Z,40.66
2017-11-18T05:49:28.202Z,40.76
2017-11-18T05:50:00.258Z,40.66
2017-11-18T05:50:32.301Z,40.66
2017-11-18T05:51:04.363Z,40.76
2017-11-18T05:51:36.402Z,40.76
2017-11-18T05:52:08.428Z,40.95
2017-11-18T05:52:40.452Z,40.57
2017-11-18T05:53:12.477Z,40.66
2017-11-18T05:53:44.485Z,40.57
2017-11-18T05:54:16.537Z,40.66
2017-11-18T05:54:48.535Z,40.76
2017-11-18T05:55:20.570Z,40.57
2017-11-18T05:55:52.582Z,40.76
2017-11-18T05:56:24.722Z,40.57
2017-11-18T05:56:56.726Z,40.57
2017-11-18T05:57:28.764Z,40.47
2017-11-18T05:58:00.794Z,40.66
2017-11-18T05:58:32.891Z,40.57
2017-11-18T05:59:04.898Z,40.76
2017-11-18T05:59:36.916Z,40.66
2017-11-18T06:00:08.981Z,40.66
2017-11-18T06:00:41.018Z,40.66
2017-11-18T06:01:13.061Z,40.47
2017-11-18T06:01:45.033Z,40.76
2017-11-18T06:02:17.077Z,40.47
2017-11-18T06:02:49.092Z,40.57
2017-11-18T06:03:21.163Z,40.76
2017-11-18T06:03:53.182Z,40.86
2017-11-18T06:04:25.176Z,40.57
2017-11-18T06:04:57.255Z,40.76
2017-11-18T06:05:29.315Z,40.57
2017-11-18T06:06:01.319Z,40.57
2017-11-18T06:06:33.348Z,40.76
2017-11-18T06:07:05.378Z,40.66
2017-11-18T06:07:37.388Z,40.57
2017-11-18T06:08:09.399Z,40.57
2017-11-18T06:08:41.451Z,40.76
2017-11-18T06:09:13.487Z,40.66
2017-11-18T06:09:45.501Z,40.66
2017-11-18T06:10:17.570Z,40.57
2017-11-18T06:10:49.558Z,40.76
2017-11-18T06:11:21.558Z,40.66
2017-11-18T06:11:53.584Z,40.66
2017-11-18T06:12:25.556Z,40.66
2017-11-18T06:12:57.579Z,40.66
2017-11-18T06:13:29.684Z,40.66
2017-11-18T06:14:01.717Z,40.76
2017-11-18T06:14:33.739Z,40.66
2017-11-18T06:15:05.851Z,40.86
2017-11-18T06:15:37.977Z,40.66
2017-11-18T06:16:09.964Z,40.95
2017-11-18T06:16:41.953Z,40.86
2017-11-18T06:17:13.974Z,40.57
2017-11-18T06:17:45.972Z,40.95
2017-11-18T06:18:18.063Z,40.76
2017-11-18T06:18:50.113Z,40.66
2017-11-18T06:19:22.166Z,40.66
2017-11-18T06:19:54.206Z,40.95
2017-11-18T06:20:26.251Z,40.76
2017-11-18T06:20:58.257Z,40.66
2017-11-18T06:21:30.333Z,40.76
2017-11-18T06:22:02.369Z,40.76
2017-11-18T06:22:34.383Z,40.57
2017-11-18T06:23:06.404Z,40.66
2017-11-18T06:23:38.427Z,40.57
2017-11-18T06:24:10.575Z,40.57
2017-11-18T06:24:42.585Z,40.57
2017-11-18T06:25:14.611Z,40.57
2017-11-18T06:25:47.542Z,40.95
2017-11-18T06:26:19.668Z,40.57
2017-11-18T06:26:51.780Z,40.95
2017-11-18T06:27:23.780Z,40.66
2017-11-18T06:27:55.802Z,40.47
2017-11-18T06:28:27.797Z,40.66
2017-11-18T06:28:59.814Z,40.76
2017-11-18T06:29:31.875Z,40.76
2017-11-18T06:30:03.920Z,40.76
2017-11-18T06:30:35.931Z,40.95
2017-11-18T06:31:07.949Z,40.57
2017-11-18T06:31:39.974Z,40.76
2017-11-18T06:32:11.986Z,40.66
2017-11-18T06:32:43.974Z,40.66
2017-11-18T06:33:15.984Z,40.95
2017-11-18T06:33:47.981Z,40.57
2017-11-18T06:34:20.028Z,40.76
2017-11-18T06:34:52.071Z,40.66
2017-11-18T06:35:24.078Z,41.05
2017-11-18T06:35:56.080Z,40.86
2017-11-18T06:36:28.128Z,40.76
2017-11-18T06:37:00.169Z,40.95
2017-11-18T06:37:32.223Z,40.95
2017-11-18T06:38:04.197Z,40.76
2017-11-18T06:38:36.221Z,40.76
2017-11-18T06:39:08.253Z,40.76
2017-11-18T06:39:40.255Z,40.76
2017-11-18T06:40:12.258Z,40.66
2017-11-18T06:40:44.275Z,40.66
2017-11-18T06:41:16.304Z,40.76
2017-11-18T06:41:48.350Z,40.76
2017-11-18T06:42:20.359Z,40.76
2017-11-18T06:42:52.391Z,40.86
2017-11-18T06:43:24.394Z,40.95
2017-11-18T06:43:56.506Z,40.76
2017-11-18T06:44:28.526Z,40.66
2017-11-18T06:45:00.563Z,40.76
2017-11-18T06:45:32.714Z,40.76
2017-11-18T06:46:04.755Z,40.86
2017-11-18T06:46:36.847Z,40.66
2017-11-18T06:47:08.852Z,40.86
2017-11-18T06:47:40.887Z,40.66
2017-11-18T06:48:12.916Z,40.76
2017-11-18T06:48:44.931Z,40.76
2017-11-18T06:49:16.941Z,40.76
2017-11-18T06:49:48.978Z,40.66
2017-11-18T06:50:20.957Z,40.76
2017-11-18T06:50:52.993Z,40.86
2017-11-18T06:51:24.965Z,40.76
2017-11-18T06:51:57.043Z,40.86
2017-11-18T06:52:29.061Z,40.76
2017-11-18T06:53:01.706Z,40.57
2017-11-18T06:53:33.737Z,40.76
2017-11-18T06:54:05.764Z,40.86